createdAt,value
2022-09-29T00:01:28.445Z,9.05
2022-09-29T00:03:55.078Z,10.02
2022-09-29T00:06:21.689Z,8.75
2022-09-29T00:08:49.694Z,9.20
2022-09-29T00:11:18.496Z,10.50
2022-09-29T00:13:46.464Z,10.13
2022-09-29T00:16:13.579Z,9.45
2022-09-29T00:18:40.650Z,9.20
2022-09-29T00:21:10.013Z,9.35
2022-09-29T00:23:37.850Z,12.80
2022-09-29T00:26:08.033Z,10.95
2022-09-29T00:28:36.654Z,10.32
2022-09-29T00:31:04.696Z,10.77
2022-09-29T00:33:31.966Z,11.60
2022-09-29T00:36:00.305Z,10.23
2022-09-29T00:38:27.421Z,9.80
2022-09-29T00:40:54.168Z,9.80
2022-09-29T00:43:24.195Z,10.73
2022-09-29T00:45:54.443Z,10.05
2022-09-29T00:48:29.700Z,11.55
2022-09-29T00:50:56.542Z,10.77
2022-09-29T00:53:24.569Z,11.23
2022-09-29T00:55:53.755Z,11.07
2022-09-29T00:58:30.991Z,10.80
2022-09-29T01:00:57.991Z,10.85
2022-09-29T01:03:27.774Z,11.70
2022-09-29T01:05:59.659Z,9.93
2022-09-29T01:08:32.490Z,9.93
2022-09-29T01:11:01.799Z,9.75
2022-09-29T01:13:31.475Z,10.45
2022-09-29T01:15:58.148Z,9.93
2022-09-29T01:18:25.238Z,10.60
2022-09-29T01:20:59.156Z,11.15
2022-09-29T01:23:54.035Z,11.38
2022-09-29T01:26:50.940Z,10.90
2022-09-29T01:29:50.256Z,10.35
2022-09-29T01:32:28.355Z,11.32
2022-09-29T01:35:04.153Z,12.20
2022-09-29T01:37:44.569Z,10.85
2022-09-29T01:40:15.259Z,11.68
2022-09-29T01:42:51.376Z,12.15
2022-09-29T01:45:24.988Z,13.98
2022-09-29T01:47:58.451Z,12.18
2022-09-29T01:50:30.440Z,12.65
2022-09-29T01:53:03.953Z,12.35
2022-09-29T01:55:33.550Z,12.50
2022-09-29T01:58:02.813Z,12.18
2022-09-29T02:03:09.919Z,13.82
2022-09-29T02:05:40.765Z,11.88
2022-09-29T02:08:14.354Z,15.38
2022-09-29T02:10:49.361Z,12.05
2022-09-29T02:13:18.308Z,12.32
2022-09-29T02:15:48.012Z,12.68
2022-09-29T02:18:21.622Z,12.68
2022-09-29T02:20:50.205Z,14.07
2022-09-29T02:23:17.429Z,12.63
2022-09-29T02:25:44.418Z,15.70
2022-09-29T02:28:11.198Z,13.95
2022-09-29T02:30:37.828Z,14.88
2022-09-29T02:33:04.905Z,14.85
2022-09-29T02:35:45.731Z,17.30
2022-09-29T02:38:21.612Z,14.65
2022-09-29T02:40:58.544Z,14.75
2022-09-29T02:43:49.118Z,13.40
2022-09-29T02:46:31.334Z,13.02
2022-09-29T02:49:19.262Z,13.93
2022-09-29T02:51:51.303Z,12.43
2022-09-29T02:54:38.661Z,12.65
2022-09-29T02:57:16.342Z,13.35
2022-09-29T02:59:49.778Z,13.73
2022-09-29T03:02:23.841Z,12.05
2022-09-29T03:04:50.490Z,11.52
2022-09-29T03:07:18.397Z,10.75
2022-09-29T03:09:44.977Z,12.30
2022-09-29T03:12:11.671Z,12.05
2022-09-29T03:14:38.353Z,11.77
2022-09-29T03:17:04.872Z,12.43
2022-09-29T03:19:31.547Z,19.17
2022-09-29T03:21:58.086Z,11.00
2022-09-29T03:24:26.032Z,11.02
2022-09-29T03:26:52.590Z,11.02
2022-09-29T03:29:19.367Z,12.10
2022-09-29T03:31:46.175Z,12.85
2022-09-29T03:34:12.814Z,13.25
2022-09-29T03:36:39.409Z,12.55
2022-09-29T03:39:06.009Z,12.32
2022-09-29T03:41:34.074Z,12.23
2022-09-29T03:44:00.777Z,11.82
2022-09-29T03:46:27.345Z,11.00
2022-09-29T03:48:54.759Z,10.85
2022-09-29T03:51:21.314Z,10.20
2022-09-29T03:53:47.900Z,11.18
2022-09-29T03:56:14.500Z,11.80
2022-09-29T03:58:42.548Z,10.90
2022-09-29T04:01:09.249Z,10.27
2022-09-29T04:03:35.948Z,10.43
2022-09-29T04:06:02.656Z,10.80
2022-09-29T04:08:29.558Z,11.18
2022-09-29T04:10:56.145Z,10.45
2022-09-29T04:13:22.771Z,11.52
2022-09-29T04:15:50.689Z,10.63
2022-09-29T04:18:17.302Z,11.00
2022-09-29T04:20:43.875Z,11.45
2022-09-29T04:23:10.471Z,10.85
2022-09-29T04:25:37.073Z,11.63
2022-09-29T04:28:03.721Z,14.50
2022-09-29T04:30:30.337Z,11.13
2022-09-29T04:32:58.380Z,11.73
2022-09-29T04:35:24.935Z,11.52
2022-09-29T04:37:54.715Z,12.88
2022-09-29T04:40:21.366Z,11.27
2022-09-29T04:42:47.930Z,11.88
2022-09-29T04:45:14.651Z,11.80
2022-09-29T04:47:41.469Z,14.65
2022-09-29T04:50:09.738Z,12.52
2022-09-29T04:52:36.498Z,12.55
2022-09-29T04:55:03.796Z,13.63
2022-09-29T04:57:30.322Z,11.63
2022-09-29T04:59:56.935Z,15.68
2022-09-29T05:02:23.604Z,14.57
2022-09-29T05:04:50.201Z,14.20
2022-09-29T05:07:18.090Z,12.90
2022-09-29T05:09:44.657Z,13.05
2022-09-29T05:12:11.195Z,14.27
2022-09-29T05:14:37.938Z,13.70
2022-09-29T05:17:04.518Z,15.73
2022-09-29T05:19:31.163Z,13.75
2022-09-29T05:21:57.789Z,15.20
2022-09-29T05:24:26.062Z,14.32
2022-09-29T05:26:58.139Z,14.13
2022-09-29T05:29:25.209Z,16.05
2022-09-29T05:31:51.919Z,15.23
2022-09-29T05:34:18.565Z,14.95
2022-09-29T05:36:45.280Z,13.38
2022-09-29T05:39:12.394Z,16.25
2022-09-29T05:41:40.407Z,14.70
2022-09-29T05:44:07.125Z,14.50
2022-09-29T05:46:33.697Z,17.77
2022-09-29T05:49:00.344Z,16.70
2022-09-29T05:51:26.920Z,15.38
2022-09-29T05:53:53.980Z,16.52
2022-09-29T05:56:21.928Z,15.35
2022-09-29T05:58:50.861Z,15.32
2022-09-29T06:01:19.422Z,17.15
2022-09-29T06:03:46.509Z,15.32
2022-09-29T06:06:15.376Z,17.85
2022-09-29T06:08:43.025Z,14.98
2022-09-29T06:11:11.320Z,18.10
2022-09-29T06:13:38.888Z,16.92
2022-09-29T06:16:07.406Z,16.63
2022-09-29T06:18:34.419Z,15.48
2022-09-29T06:21:02.322Z,16.00
2022-09-29T06:23:28.818Z,19.45
2022-09-29T06:25:56.523Z,17.25
2022-09-29T06:28:23.375Z,18.95
2022-09-29T06:30:50.251Z,18.67
2022-09-29T06:33:18.272Z,20.98
2022-09-29T06:35:46.462Z,21.80
2022-09-29T06:38:13.072Z,17.73
2022-09-29T06:40:39.712Z,23.50
2022-09-29T06:43:06.427Z,21.15
2022-09-29T06:45:33.094Z,21.50
2022-09-29T06:47:59.815Z,20.20
2022-09-29T06:50:27.705Z,23.45
2022-09-29T06:53:03.454Z,24.55
2022-09-29T06:55:31.803Z,22.35
2022-09-29T06:58:02.980Z,23.83
2022-09-29T07:00:31.317Z,23.85
2022-09-29T07:02:57.868Z,22.73
2022-09-29T07:05:24.587Z,24.75
2022-09-29T07:07:55.471Z,22.95
2022-09-29T07:10:24.276Z,23.60
2022-09-29T07:12:51.615Z,23.15
2022-09-29T07:15:18.169Z,26.67
2022-09-29T07:17:44.862Z,23.27
2022-09-29T07:20:11.374Z,26.42
2022-09-29T07:22:38.018Z,30.52
2022-09-29T07:25:07.138Z,27.55
2022-09-29T07:27:33.778Z,25.38
2022-09-29T07:30:04.065Z,22.88
2022-09-29T07:32:31.681Z,25.48
2022-09-29T07:34:58.401Z,22.48
2022-09-29T07:37:25.017Z,23.80
2022-09-29T07:39:51.554Z,27.17
2022-09-29T07:42:19.553Z,27.48
2022-09-29T07:44:54.491Z,26.50
2022-09-29T07:47:21.155Z,26.15
2022-09-29T07:49:47.673Z,29.55
2022-09-29T07:52:14.595Z,25.80
2022-09-29T07:54:41.188Z,24.13
2022-09-29T07:57:07.922Z,31.90
2022-09-29T07:59:35.858Z,29.00
2022-09-29T08:02:02.423Z,31.23
2022-09-29T08:04:28.969Z,73.40
2022-09-29T08:06:55.683Z,58.10
2022-09-29T08:09:32.670Z,32.13
2022-09-29T08:12:08.055Z,25.60
2022-09-29T08:14:38.746Z,21.52
2022-09-29T08:19:33.697Z,16.45
2022-09-29T08:22:00.320Z,10.88
2022-09-29T08:24:26.853Z,10.10
2022-09-29T08:26:53.488Z,8.20
2022-09-29T08:29:20.250Z,8.27
2022-09-29T08:31:48.197Z,10.15
2022-09-29T08:34:15.914Z,6.13
2022-09-29T08:36:42.564Z,12.82
2022-09-29T08:39:10.314Z,11.43
2022-09-29T08:41:49.359Z,10.70
2022-09-29T08:44:36.358Z,5.30
2022-09-29T08:47:15.086Z,13.07
2022-09-29T08:49:46.227Z,13.27
2022-09-29T08:52:17.429Z,5.90
2022-09-29T08:54:48.901Z,9.87
2022-09-29T08:57:19.090Z,8.50
2022-09-29T08:59:53.311Z,13.93
2022-09-29T09:02:46.906Z,21.85
2022-09-29T09:05:27.285Z,15.75
2022-09-29T09:08:04.146Z,8.73
2022-09-29T09:10:42.478Z,6.03
2022-09-29T09:13:23.961Z,4.20
2022-09-29T09:16:06.552Z,4.93
2022-09-29T09:19:07.168Z,4.18
2022-09-29T09:21:41.314Z,4.85
2022-09-29T09:24:26.087Z,4.82
2022-09-29T09:26:53.895Z,29.65
2022-09-29T09:29:32.640Z,14.65
2022-09-29T09:32:07.304Z,9.60
2022-09-29T09:34:44.343Z,7.50
2022-09-29T09:37:17.537Z,4.75
2022-09-29T09:39:49.386Z,4.55
2022-09-29T09:44:48.600Z,6.28
2022-09-29T09:47:24.505Z,4.75
2022-09-29T09:49:55.986Z,4.50
2022-09-29T09:52:27.681Z,4.13
2022-09-29T09:54:58.478Z,4.68
2022-09-29T09:57:55.774Z,9.95
2022-09-29T10:00:31.693Z,6.75
2022-09-29T10:03:02.754Z,7.68
2022-09-29T10:05:35.822Z,5.97
2022-09-29T10:08:03.549Z,5.18
2022-09-29T10:10:31.177Z,6.68
2022-09-29T10:13:03.309Z,8.90
2022-09-29T10:15:34.404Z,7.30
2022-09-29T10:18:06.221Z,9.17
2022-09-29T10:20:36.863Z,4.25
2022-09-29T10:23:23.627Z,5.17
2022-09-29T10:25:57.642Z,4.60
2022-09-29T10:28:26.500Z,6.07
2022-09-29T10:30:54.862Z,4.88
2022-09-29T10:33:24.233Z,4.85
2022-09-29T10:36:05.764Z,7.32
2022-09-29T10:41:01.392Z,4.57
2022-09-29T10:43:37.859Z,4.78
2022-09-29T10:46:05.599Z,3.90
2022-09-29T10:48:32.262Z,4.55
2022-09-29T10:51:02.264Z,3.53
2022-09-29T10:53:34.977Z,5.63
2022-09-29T10:56:10.289Z,3.25
2022-09-29T10:58:58.944Z,3.88
2022-09-29T11:01:28.552Z,4.85
2022-09-29T11:03:58.591Z,3.22
2022-09-29T11:06:29.160Z,3.13
2022-09-29T11:09:01.389Z,3.58
2022-09-29T11:11:30.036Z,3.55
2022-09-29T11:13:57.355Z,4.82
2022-09-29T11:16:28.067Z,4.13
2022-09-29T11:18:58.922Z,2.72
2022-09-29T11:21:51.881Z,2.50
2022-09-29T11:24:32.775Z,1.52
2022-09-29T11:27:11.852Z,2.13
2022-09-29T11:29:47.110Z,2.47
2022-09-29T11:32:29.142Z,2.08
2022-09-29T11:35:26.907Z,2.63
2022-09-29T11:38:20.432Z,3.33
2022-09-29T11:41:02.744Z,3.17
2022-09-29T11:43:45.331Z,2.60
2022-09-29T11:46:29.472Z,1.77
2022-09-29T11:49:22.957Z,2.50
2022-09-29T11:52:10.548Z,2.13
2022-09-29T11:54:56.527Z,2.70
2022-09-29T11:57:43.155Z,2.55
2022-09-29T12:00:12.830Z,2.40
2022-09-29T12:03:00.133Z,2.95
2022-09-29T12:05:37.689Z,3.25
2022-09-29T12:08:15.371Z,2.53
2022-09-29T12:10:53.134Z,2.33
2022-09-29T12:13:33.822Z,1.67
2022-09-29T12:16:04.155Z,2.50
2022-09-29T12:18:37.421Z,1.95
2022-09-29T12:21:07.992Z,2.72
2022-09-29T12:23:37.722Z,3.10
2022-09-29T12:26:09.656Z,3.90
2022-09-29T12:28:43.792Z,4.43
2022-09-29T12:31:14.999Z,2.30
2022-09-29T12:33:45.933Z,3.13
2022-09-29T12:36:30.056Z,6.38
2022-09-29T12:39:02.653Z,2.70
2022-09-29T12:41:38.191Z,1.75
2022-09-29T12:44:13.701Z,3.17
2022-09-29T12:46:47.188Z,2.50
2022-09-29T12:49:21.923Z,2.38
2022-09-29T12:51:50.518Z,2.83
2022-09-29T12:54:24.140Z,2.40
2022-09-29T12:56:55.610Z,4.03
2022-09-29T13:01:57.762Z,3.40
2022-09-29T13:04:57.328Z,1.80
2022-09-29T13:08:05.428Z,4.78
2022-09-29T13:10:46.325Z,3.78
2022-09-29T13:13:34.362Z,3.53
2022-09-29T13:16:13.552Z,2.42
2022-09-29T13:19:23.036Z,1.52
2022-09-29T13:22:01.838Z,1.80
2022-09-29T13:24:43.715Z,1.30
2022-09-29T13:27:24.387Z,3.08
2022-09-29T13:29:57.935Z,3.30
2022-09-29T13:32:24.671Z,4.40
2022-09-29T13:34:55.431Z,3.00
2022-09-29T13:37:24.914Z,2.60
2022-09-29T13:40:01.341Z,2.92
2022-09-29T13:42:44.268Z,2.95
2022-09-29T13:45:40.915Z,3.50
2022-09-29T13:48:36.509Z,2.75
2022-09-29T13:51:27.825Z,2.28
2022-09-29T13:54:37.018Z,3.57
2022-09-29T13:57:25.430Z,2.08
2022-09-29T14:00:25.120Z,2.05
2022-09-29T14:03:20.226Z,3.42
2022-09-29T14:05:53.650Z,3.83
2022-09-29T14:08:25.383Z,2.47
2022-09-29T14:11:00.973Z,3.00
2022-09-29T14:13:32.399Z,2.15
2022-09-29T14:16:14.555Z,1.88
2022-09-29T14:18:46.438Z,2.88
2022-09-29T14:23:52.005Z,2.63
2022-09-29T14:26:44.459Z,3.15
2022-09-29T14:29:16.829Z,3.17
2022-09-29T14:31:49.879Z,2.55
2022-09-29T14:36:46.183Z,5.13
2022-09-29T14:39:26.007Z,2.90
2022-09-29T14:41:53.787Z,2.22
2022-09-29T14:44:25.006Z,2.00
2022-09-29T14:47:05.314Z,1.80
2022-09-29T14:49:48.211Z,3.05
2022-09-29T14:52:23.779Z,4.05
2022-09-29T14:55:02.388Z,2.45
2022-09-29T14:58:00.997Z,3.28
2022-09-29T15:00:37.094Z,2.38
2022-09-29T15:03:26.354Z,3.10
2022-09-29T15:06:04.716Z,4.88
2022-09-29T15:08:32.073Z,2.95
2022-09-29T15:10:58.690Z,4.82
2022-09-29T15:13:27.007Z,3.38
2022-09-29T15:15:58.138Z,2.90
2022-09-29T15:18:45.447Z,4.93
2022-09-29T15:21:19.668Z,2.90
2022-09-29T15:24:14.811Z,4.05
2022-09-29T15:26:43.084Z,3.38
2022-09-29T15:29:17.304Z,3.63
2022-09-29T15:31:47.060Z,2.85
2022-09-29T15:34:18.485Z,3.17
2022-09-29T15:36:48.263Z,3.35
2022-09-29T15:39:45.310Z,2.45
2022-09-29T15:42:14.184Z,2.35
2022-09-29T15:44:47.260Z,2.92
2022-09-29T15:47:21.234Z,3.88
2022-09-29T15:49:52.030Z,2.25
2022-09-29T15:52:20.257Z,5.18
2022-09-29T15:54:46.977Z,3.35
2022-09-29T15:57:28.977Z,3.20
2022-09-29T15:59:55.986Z,2.70
2022-09-29T16:02:29.143Z,2.88
2022-09-29T16:05:00.174Z,3.08
2022-09-29T16:07:29.663Z,5.85
2022-09-29T16:10:05.541Z,2.30
2022-09-29T16:12:38.252Z,3.72
2022-09-29T16:15:05.924Z,5.55
2022-09-29T16:17:32.656Z,3.65
2022-09-29T16:20:01.115Z,3.17
2022-09-29T16:22:27.946Z,4.65
2022-09-29T16:25:08.501Z,3.00
2022-09-29T16:27:51.093Z,5.53
2022-09-29T16:30:20.692Z,2.70
2022-09-29T16:32:53.611Z,4.25
2022-09-29T16:35:46.765Z,3.90
2022-09-29T16:38:27.208Z,3.30
2022-09-29T16:40:54.659Z,2.60
2022-09-29T16:43:24.675Z,3.85
2022-09-29T16:45:53.005Z,2.47
2022-09-29T16:48:20.244Z,3.85
2022-09-29T16:50:49.492Z,4.22
2022-09-29T16:53:23.990Z,6.53
2022-09-29T16:55:59.254Z,3.78
2022-09-29T16:58:27.146Z,3.83
2022-09-29T17:00:54.265Z,4.70
2022-09-29T17:03:20.980Z,3.05
2022-09-29T17:05:49.285Z,4.20
2022-09-29T17:08:19.546Z,5.50
2022-09-29T17:10:46.227Z,6.10
2022-09-29T17:13:14.536Z,4.78
2022-09-29T17:15:42.141Z,6.03
2022-09-29T17:18:11.824Z,6.25
2022-09-29T17:20:39.283Z,4.60
2022-09-29T17:23:07.433Z,2.90
2022-09-29T17:25:35.610Z,5.13
2022-09-29T17:28:02.236Z,6.72
2022-09-29T17:30:28.916Z,3.58
2022-09-29T17:32:57.285Z,4.22
2022-09-29T17:35:26.382Z,3.78
2022-09-29T17:37:52.994Z,6.18
2022-09-29T17:40:24.507Z,3.03
2022-09-29T17:42:51.194Z,4.63
2022-09-29T17:45:19.923Z,4.88
2022-09-29T17:47:48.015Z,3.47
2022-09-29T17:50:21.831Z,4.80
2022-09-29T17:52:48.617Z,2.85
2022-09-29T17:55:15.500Z,4.35
2022-09-29T17:57:43.658Z,4.00
2022-09-29T18:00:15.885Z,3.72
2022-09-29T18:02:42.645Z,5.28
2022-09-29T18:05:09.725Z,4.35
2022-09-29T18:07:36.395Z,8.98
2022-09-29T18:10:03.238Z,7.00
2022-09-29T18:12:29.836Z,5.20
2022-09-29T18:14:58.126Z,6.13
2022-09-29T18:17:24.934Z,6.22
2022-09-29T18:19:51.586Z,5.75
2022-09-29T18:22:18.306Z,7.65
2022-09-29T18:24:44.913Z,4.60
2022-09-29T18:27:11.583Z,4.15
2022-09-29T18:29:38.186Z,4.30
2022-09-29T18:32:06.258Z,4.45
2022-09-29T18:34:32.919Z,5.57
2022-09-29T18:36:59.638Z,8.52
2022-09-29T18:39:26.281Z,15.05
2022-09-29T18:41:52.983Z,19.90
2022-09-29T18:44:22.506Z,18.92
2022-09-29T18:46:49.230Z,13.93
2022-09-29T18:49:17.236Z,13.52
2022-09-29T18:51:44.018Z,12.70
2022-09-29T18:54:10.579Z,12.80
2022-09-29T18:56:37.237Z,10.30
2022-09-29T18:59:03.787Z,10.68
2022-09-29T19:01:30.614Z,11.10
2022-09-29T19:03:57.262Z,11.70
2022-09-29T19:06:25.323Z,9.05
2022-09-29T19:08:52.044Z,10.55
2022-09-29T19:11:20.330Z,7.82
2022-09-29T19:13:47.201Z,6.75
2022-09-29T19:16:13.877Z,6.93
2022-09-29T19:18:40.574Z,9.45
2022-09-29T19:21:10.487Z,6.35
2022-09-29T19:23:39.363Z,6.05
2022-09-29T19:26:10.806Z,6.43
2022-09-29T19:28:37.615Z,5.43
2022-09-29T19:31:07.033Z,7.93
2022-09-29T19:33:33.899Z,4.85
2022-09-29T19:36:04.219Z,5.68
2022-09-29T19:38:31.484Z,7.88
2022-09-29T19:40:59.687Z,6.05
2022-09-29T19:43:26.535Z,7.38
2022-09-29T19:45:53.135Z,6.68
2022-09-29T19:48:21.684Z,6.65
2022-09-29T19:50:49.142Z,10.35
2022-09-29T19:53:15.871Z,9.88
2022-09-29T19:55:42.645Z,9.25
2022-09-29T19:58:10.933Z,6.75
2022-09-29T20:00:38.288Z,11.75
2022-09-29T20:03:05.079Z,7.35
2022-09-29T20:05:31.770Z,8.85
2022-09-29T20:07:58.403Z,6.65
2022-09-29T20:10:24.988Z,11.75
2022-09-29T20:12:51.585Z,6.88
2022-09-29T20:15:19.680Z,12.35
2022-09-29T20:17:46.354Z,6.53
2022-09-29T20:20:13.038Z,7.97
2022-09-29T20:22:39.747Z,6.75
2022-09-29T20:25:07.352Z,7.75
2022-09-29T20:27:34.554Z,10.68
2022-09-29T20:30:01.432Z,7.80
2022-09-29T20:32:29.495Z,8.07
2022-09-29T20:34:56.043Z,7.18
2022-09-29T20:37:22.814Z,7.65
2022-09-29T20:39:49.418Z,11.68
2022-09-29T20:42:16.233Z,8.18
2022-09-29T20:44:42.899Z,8.55
2022-09-29T20:47:10.022Z,8.00
2022-09-29T20:49:38.013Z,5.75
2022-09-29T20:52:04.979Z,9.00
2022-09-29T20:54:31.595Z,7.28
2022-09-29T20:56:58.234Z,8.63
2022-09-29T20:59:25.093Z,7.15
2022-09-29T21:01:52.645Z,11.13
2022-09-29T21:04:20.986Z,5.88
2022-09-29T21:06:51.357Z,9.45
2022-09-29T21:09:19.987Z,8.15
2022-09-29T21:11:46.697Z,8.43
2022-09-29T21:14:15.199Z,8.65
2022-09-29T21:16:42.549Z,9.30
2022-09-29T21:19:09.714Z,7.47
2022-09-29T21:21:37.301Z,8.43
2022-09-29T21:24:05.355Z,8.48
2022-09-29T21:26:32.009Z,7.15
2022-09-29T21:29:00.839Z,8.85
2022-09-29T21:31:29.624Z,9.77
2022-09-29T21:33:57.879Z,8.40
2022-09-29T21:36:26.581Z,8.95
2022-09-29T21:38:53.193Z,6.80
2022-09-29T21:41:22.898Z,6.28
2022-09-29T21:43:50.886Z,7.32
2022-09-29T21:46:20.336Z,6.45
2022-09-29T21:48:50.934Z,9.18
2022-09-29T21:51:19.421Z,8.48
2022-09-29T21:53:45.989Z,7.28
2022-09-29T21:56:14.057Z,9.23
2022-09-29T21:58:44.654Z,9.27
2022-09-29T22:01:12.187Z,7.35
2022-09-29T22:03:41.200Z,6.38
2022-09-29T22:06:12.722Z,7.28
2022-09-29T22:08:39.548Z,7.05
2022-09-29T22:11:07.226Z,7.32
2022-09-29T22:13:33.914Z,7.47
2022-09-29T22:16:04.085Z,6.75
2022-09-29T22:18:41.185Z,10.23
2022-09-29T22:21:10.547Z,8.90
2022-09-29T22:23:37.214Z,9.43
2022-09-29T22:26:04.260Z,9.95
2022-09-29T22:28:30.975Z,8.75
2022-09-29T22:31:09.279Z,8.30
2022-09-29T22:33:37.206Z,9.52
2022-09-29T22:36:04.689Z,6.65
2022-09-29T22:38:31.519Z,9.35
2022-09-29T22:40:58.163Z,9.93
2022-09-29T22:43:24.737Z,7.97
2022-09-29T22:45:51.972Z,8.57
2022-09-29T22:48:20.010Z,8.70
2022-09-29T22:50:48.177Z,10.23
2022-09-29T22:53:15.711Z,9.68
2022-09-29T22:55:42.402Z,7.50
2022-09-29T22:58:09.583Z,6.18
2022-09-29T23:00:37.357Z,6.25
2022-09-29T23:03:04.505Z,7.78
2022-09-29T23:05:32.794Z,7.88
2022-09-29T23:07:59.460Z,6.53
2022-09-29T23:10:26.387Z,6.43
2022-09-29T23:12:53.104Z,7.20
2022-09-29T23:15:19.807Z,9.02
2022-09-29T23:17:46.960Z,6.82
2022-09-29T23:20:13.716Z,7.05
2022-09-29T23:22:41.676Z,8.75
2022-09-29T23:25:08.876Z,12.23
2022-09-29T23:27:35.534Z,10.98
2022-09-29T23:30:02.244Z,10.68
2022-09-29T23:32:28.830Z,11.18
2022-09-29T23:34:55.402Z,8.93
2022-09-29T23:37:22.106Z,10.75
2022-09-29T23:39:50.092Z,8.55
2022-09-29T23:42:17.134Z,8.20
2022-09-29T23:44:43.898Z,7.18
2022-09-29T23:47:10.475Z,7.57
2022-09-29T23:49:37.172Z,7.03
2022-09-29T23:52:03.736Z,9.65
2022-09-29T23:54:30.469Z,10.73
2022-09-29T23:56:58.843Z,6.85
2022-09-29T23:59:25.798Z,8.60
